sensor_id;sensor_type;location;lat;lon;timestamp;P1;durP1;ratioP1;P2;durP2;ratioP2
63882;SDS011;50047;50.596;30.466;2023-03-23T00:01:41;36.90;;;16.70;;
63882;SDS011;50047;50.596;30.466;2023-03-23T00:04:08;42.60;;;20.30;;
63882;SDS011;50047;50.596;30.466;2023-03-23T00:06:35;44.50;;;23.10;;
63882;SDS011;50047;50.596;30.466;2023-03-23T00:09:04;45.80;;;23.20;;
63882;SDS011;50047;50.596;30.466;2023-03-23T00:11:32;42.60;;;22.40;;
63882;SDS011;50047;50.596;30.466;2023-03-23T00:14:02;39.00;;;18.50;;
63882;SDS011;50047;50.596;30.466;2023-03-23T00:16:32;32.80;;;17.70;;
63882;SDS011;50047;50.596;30.466;2023-03-23T00:19:04;37.60;;;20.70;;
63882;SDS011;50047;50.596;30.466;2023-03-23T00:21:37;49.50;;;22.80;;
63882;SDS011;50047;50.596;30.466;2023-03-23T00:24:07;53.50;;;23.30;;
63882;SDS011;50047;50.596;30.466;2023-03-23T00:26:39;51.90;;;24.20;;
63882;SDS011;50047;50.596;30.466;2023-03-23T00:29:18;22.10;;;11.80;;
63882;SDS011;50047;50.596;30.466;2023-03-23T00:31:50;31.60;;;15.00;;
63882;SDS011;50047;50.596;30.466;2023-03-23T00:34:20;33.70;;;17.20;;
63882;SDS011;50047;50.596;30.466;2023-03-23T00:36:51;38.80;;;19.60;;
63882;SDS011;50047;50.596;30.466;2023-03-23T00:39:24;43.20;;;22.50;;
63882;SDS011;50047;50.596;30.466;2023-03-23T00:41:54;38.90;;;20.50;;
63882;SDS011;50047;50.596;30.466;2023-03-23T00:44:29;38.90;;;20.10;;
63882;SDS011;50047;50.596;30.466;2023-03-23T00:47:02;38.40;;;20.30;;
63882;SDS011;50047;50.596;30.466;2023-03-23T00:49:32;41.50;;;21.00;;
63882;SDS011;50047;50.596;30.466;2023-03-23T00:52:01;46.10;;;21.10;;
63882;SDS011;50047;50.596;30.466;2023-03-23T00:54:30;44.30;;;21.60;;
63882;SDS011;50047;50.596;30.466;2023-03-23T00:56:58;51.70;;;22.40;;
63882;SDS011;50047;50.596;30.466;2023-03-23T00:59:26;19.40;;;9.90;;
63882;SDS011;50047;50.596;30.466;2023-03-23T01:01:53;28.20;;;14.70;;
63882;SDS011;50047;50.596;30.466;2023-03-23T01:04:22;34.20;;;17.20;;
63882;SDS011;50047;50.596;30.466;2023-03-23T01:06:50;39.30;;;20.40;;
63882;SDS011;50047;50.596;30.466;2023-03-23T01:09:18;37.20;;;21.40;;
63882;SDS011;50047;50.596;30.466;2023-03-23T01:11:50;35.60;;;20.60;;
63882;SDS011;50047;50.596;30.466;2023-03-23T01:14:18;34.80;;;17.70;;
63882;SDS011;50047;50.596;30.466;2023-03-23T01:16:46;38.10;;;16.60;;
63882;SDS011;50047;50.596;30.466;2023-03-23T01:19:13;31.90;;;17.10;;
63882;SDS011;50047;50.596;30.466;2023-03-23T01:21:46;34.80;;;19.50;;
63882;SDS011;50047;50.596;30.466;2023-03-23T01:24:14;37.50;;;19.90;;
63882;SDS011;50047;50.596;30.466;2023-03-23T01:26:42;17.20;;;8.90;;
63882;SDS011;50047;50.596;30.466;2023-03-23T01:29:10;27.10;;;14.40;;
63882;SDS011;50047;50.596;30.466;2023-03-23T01:31:37;35.20;;;17.60;;
63882;SDS011;50047;50.596;30.466;2023-03-23T01:34:07;33.40;;;19.80;;
63882;SDS011;50047;50.596;30.466;2023-03-23T01:36:35;32.90;;;18.40;;
63882;SDS011;50047;50.596;30.466;2023-03-23T01:39:04;31.70;;;16.20;;
63882;SDS011;50047;50.596;30.466;2023-03-23T01:41:34;28.80;;;15.30;;
63882;SDS011;50047;50.596;30.466;2023-03-23T01:46:54;26.00;;;14.30;;
63882;SDS011;50047;50.596;30.466;2023-03-23T01:49:29;35.60;;;19.00;;
63882;SDS011;50047;50.596;30.466;2023-03-23T01:52:01;38.30;;;21.50;;
63882;SDS011;50047;50.596;30.466;2023-03-23T01:54:32;25.50;;;11.00;;
63882;SDS011;50047;50.596;30.466;2023-03-23T01:57:09;30.60;;;16.00;;
63882;SDS011;50047;50.596;30.466;2023-03-23T01:59:41;36.70;;;19.60;;
63882;SDS011;50047;50.596;30.466;2023-03-23T02:02:20;38.00;;;21.80;;
63882;SDS011;50047;50.596;30.466;2023-03-23T02:04:50;43.40;;;22.40;;
63882;SDS011;50047;50.596;30.466;2023-03-23T02:07:26;39.30;;;21.90;;
63882;SDS011;50047;50.596;30.466;2023-03-23T02:09:57;44.70;;;23.40;;
63882;SDS011;50047;50.596;30.466;2023-03-23T02:12:24;46.80;;;23.50;;
63882;SDS011;50047;50.596;30.466;2023-03-23T02:14:54;47.90;;;24.50;;
63882;SDS011;50047;50.596;30.466;2023-03-23T02:17:25;47.00;;;23.70;;
63882;SDS011;50047;50.596;30.466;2023-03-23T02:23:19;43.60;;;24.20;;
63882;SDS011;50047;50.596;30.466;2023-03-23T02:36:28;38.90;;;22.70;;
63882;SDS011;50047;50.596;30.466;2023-03-23T02:41:35;40.20;;;23.30;;
63882;SDS011;50047;50.596;30.466;2023-03-23T02:44:07;42.50;;;21.80;;
63882;SDS011;50047;50.596;30.466;2023-03-23T02:46:36;38.00;;;20.30;;
63882;SDS011;50047;50.596;30.466;2023-03-23T02:49:06;40.50;;;20.60;;
63882;SDS011;50047;50.596;30.466;2023-03-23T02:51:36;43.90;;;23.00;;
63882;SDS011;50047;50.596;30.466;2023-03-23T02:54:05;42.00;;;23.00;;
63882;SDS011;50047;50.596;30.466;2023-03-23T02:56:34;40.90;;;23.10;;
63882;SDS011;50047;50.596;30.466;2023-03-23T02:59:03;42.80;;;23.70;;
63882;SDS011;50047;50.596;30.466;2023-03-23T03:09:53;45.40;;;23.90;;
63882;SDS011;50047;50.596;30.466;2023-03-23T03:15:11;31.10;;;16.20;;
63882;SDS011;50047;50.596;30.466;2023-03-23T03:18:07;41.20;;;21.30;;
63882;SDS011;50047;50.596;30.466;2023-03-23T03:20:40;41.90;;;24.30;;
63882;SDS011;50047;50.596;30.466;2023-03-23T03:23:13;43.00;;;23.70;;
63882;SDS011;50047;50.596;30.466;2023-03-23T03:25:45;48.70;;;25.00;;
63882;SDS011;50047;50.596;30.466;2023-03-23T03:28:23;51.10;;;25.80;;
63882;SDS011;50047;50.596;30.466;2023-03-23T03:30:56;47.50;;;23.70;;
63882;SDS011;50047;50.596;30.466;2023-03-23T03:33:28;45.40;;;24.80;;
63882;SDS011;50047;50.596;30.466;2023-03-23T03:36:02;43.00;;;23.30;;
63882;SDS011;50047;50.596;30.466;2023-03-23T03:38:42;46.90;;;24.30;;
63882;SDS011;50047;50.596;30.466;2023-03-23T03:41:11;50.60;;;26.50;;
63882;SDS011;50047;50.596;30.466;2023-03-23T03:43:38;50.00;;;26.10;;
63882;SDS011;50047;50.596;30.466;2023-03-23T03:46:08;43.30;;;24.50;;
63882;SDS011;50047;50.596;30.466;2023-03-23T03:48:35;46.70;;;25.90;;
63882;SDS011;50047;50.596;30.466;2023-03-23T03:51:03;52.80;;;27.60;;
63882;SDS011;50047;50.596;30.466;2023-03-23T03:53:33;48.70;;;25.00;;
63882;SDS011;50047;50.596;30.466;2023-03-23T03:56:01;25.30;;;12.90;;
63882;SDS011;50047;50.596;30.466;2023-03-23T03:58:35;37.80;;;18.10;;
63882;SDS011;50047;50.596;30.466;2023-03-23T04:01:21;46.40;;;23.60;;
63882;SDS011;50047;50.596;30.466;2023-03-23T04:03:53;50.70;;;27.20;;
63882;SDS011;50047;50.596;30.466;2023-03-23T04:06:28;54.10;;;27.80;;
63882;SDS011;50047;50.596;30.466;2023-03-23T04:08:56;56.90;;;27.20;;
63882;SDS011;50047;50.596;30.466;2023-03-23T04:11:27;46.50;;;25.70;;
63882;SDS011;50047;50.596;30.466;2023-03-23T04:13:58;49.80;;;26.20;;
63882;SDS011;50047;50.596;30.466;2023-03-23T04:16:31;55.60;;;27.80;;
63882;SDS011;50047;50.596;30.466;2023-03-23T04:19:01;52.60;;;26.20;;
63882;SDS011;50047;50.596;30.466;2023-03-23T04:21:29;51.70;;;27.90;;
63882;SDS011;50047;50.596;30.466;2023-03-23T04:23:57;51.20;;;28.10;;
63882;SDS011;50047;50.596;30.466;2023-03-23T04:26:26;52.90;;;28.00;;
63882;SDS011;50047;50.596;30.466;2023-03-23T04:29:02;48.70;;;27.10;;
63882;SDS011;50047;50.596;30.466;2023-03-23T04:31:30;52.80;;;27.50;;
63882;SDS011;50047;50.596;30.466;2023-03-23T04:34:09;54.70;;;28.50;;
63882;SDS011;50047;50.596;30.466;2023-03-23T04:36:44;54.20;;;28.00;;
63882;SDS011;50047;50.596;30.466;2023-03-23T04:39:16;49.60;;;26.40;;
63882;SDS011;50047;50.596;30.466;2023-03-23T04:41:48;23.90;;;12.60;;
63882;SDS011;50047;50.596;30.466;2023-03-23T04:44:21;34.10;;;19.40;;
63882;SDS011;50047;50.596;30.466;2023-03-23T04:47:01;40.20;;;22.60;;
63882;SDS011;50047;50.596;30.466;2023-03-23T04:49:31;44.10;;;23.90;;
63882;SDS011;50047;50.596;30.466;2023-03-23T04:52:08;40.70;;;23.50;;
63882;SDS011;50047;50.596;30.466;2023-03-23T04:54:43;35.20;;;20.60;;
63882;SDS011;50047;50.596;30.466;2023-03-23T04:57:11;36.70;;;20.40;;
63882;SDS011;50047;50.596;30.466;2023-03-23T04:59:43;33.00;;;19.30;;
63882;SDS011;50047;50.596;30.466;2023-03-23T05:02:17;34.40;;;20.00;;
63882;SDS011;50047;50.596;30.466;2023-03-23T05:04:46;38.60;;;20.40;;
63882;SDS011;50047;50.596;30.466;2023-03-23T05:07:19;37.00;;;18.80;;
63882;SDS011;50047;50.596;30.466;2023-03-23T05:09:49;30.30;;;18.50;;
63882;SDS011;50047;50.596;30.466;2023-03-23T05:12:20;34.30;;;18.20;;
63882;SDS011;50047;50.596;30.466;2023-03-23T05:15:07;28.40;;;16.40;;
63882;SDS011;50047;50.596;30.466;2023-03-23T05:17:36;35.20;;;18.60;;
63882;SDS011;50047;50.596;30.466;2023-03-23T05:20:11;33.20;;;18.50;;
63882;SDS011;50047;50.596;30.466;2023-03-23T05:22:46;34.30;;;19.40;;
63882;SDS011;50047;50.596;30.466;2023-03-23T05:25:21;42.60;;;22.30;;
63882;SDS011;50047;50.596;30.466;2023-03-23T05:28:02;37.70;;;21.10;;
63882;SDS011;50047;50.596;30.466;2023-03-23T05:30:48;31.80;;;18.60;;
63882;SDS011;50047;50.596;30.466;2023-03-23T05:33:18;24.90;;;16.00;;
63882;SDS011;50047;50.596;30.466;2023-03-23T05:36:07;28.40;;;16.20;;
63882;SDS011;50047;50.596;30.466;2023-03-23T05:38:56;28.10;;;15.40;;
63882;SDS011;50047;50.596;30.466;2023-03-23T05:41:37;27.20;;;15.00;;
63882;SDS011;50047;50.596;30.466;2023-03-23T05:44:06;26.20;;;14.20;;
63882;SDS011;50047;50.596;30.466;2023-03-23T05:46:55;27.40;;;15.00;;
63882;SDS011;50047;50.596;30.466;2023-03-23T05:49:23;25.20;;;14.40;;
63882;SDS011;50047;50.596;30.466;2023-03-23T05:51:58;21.70;;;12.70;;
63882;SDS011;50047;50.596;30.466;2023-03-23T05:54:27;24.10;;;13.70;;
63882;SDS011;50047;50.596;30.466;2023-03-23T05:56:54;19.60;;;11.90;;
63882;SDS011;50047;50.596;30.466;2023-03-23T05:59:37;23.30;;;12.10;;
63882;SDS011;50047;50.596;30.466;2023-03-23T06:02:05;19.70;;;11.60;;
63882;SDS011;50047;50.596;30.466;2023-03-23T06:04:35;19.30;;;10.80;;
63882;SDS011;50047;50.596;30.466;2023-03-23T06:07:13;21.00;;;11.20;;
63882;SDS011;50047;50.596;30.466;2023-03-23T06:09:46;21.10;;;12.80;;
63882;SDS011;50047;50.596;30.466;2023-03-23T06:12:28;20.30;;;11.30;;
63882;SDS011;50047;50.596;30.466;2023-03-23T06:15:12;26.70;;;13.90;;
63882;SDS011;50047;50.596;30.466;2023-03-23T06:18:05;27.00;;;13.70;;
63882;SDS011;50047;50.596;30.466;2023-03-23T06:20:54;27.40;;;14.60;;
63882;SDS011;50047;50.596;30.466;2023-03-23T06:23:50;25.50;;;14.20;;
63882;SDS011;50047;50.596;30.466;2023-03-23T06:26:19;27.10;;;14.70;;
63882;SDS011;50047;50.596;30.466;2023-03-23T06:28:51;22.20;;;13.70;;
63882;SDS011;50047;50.596;30.466;2023-03-23T06:31:19;28.30;;;15.00;;
63882;SDS011;50047;50.596;30.466;2023-03-23T06:33:48;28.40;;;16.40;;
63882;SDS011;50047;50.596;30.466;2023-03-23T06:36:18;30.00;;;17.40;;
63882;SDS011;50047;50.596;30.466;2023-03-23T06:38:51;27.20;;;16.30;;
63882;SDS011;50047;50.596;30.466;2023-03-23T06:41:22;29.20;;;16.80;;
63882;SDS011;50047;50.596;30.466;2023-03-23T06:43:50;26.30;;;14.20;;
63882;SDS011;50047;50.596;30.466;2023-03-23T06:46:24;20.60;;;13.10;;
63882;SDS011;50047;50.596;30.466;2023-03-23T06:48:57;25.70;;;12.00;;
63882;SDS011;50047;50.596;30.466;2023-03-23T06:51:38;17.50;;;10.90;;
63882;SDS011;50047;50.596;30.466;2023-03-23T06:54:05;17.60;;;11.10;;
63882;SDS011;50047;50.596;30.466;2023-03-23T06:56:41;17.20;;;10.30;;
63882;SDS011;50047;50.596;30.466;2023-03-23T06:59:09;19.70;;;11.00;;
63882;SDS011;50047;50.596;30.466;2023-03-23T07:01:38;18.90;;;10.60;;
63882;SDS011;50047;50.596;30.466;2023-03-23T07:04:06;17.00;;;10.20;;
63882;SDS011;50047;50.596;30.466;2023-03-23T07:06:44;14.90;;;9.90;;
63882;SDS011;50047;50.596;30.466;2023-03-23T07:09:12;18.40;;;9.90;;
63882;SDS011;50047;50.596;30.466;2023-03-23T07:11:39;16.60;;;9.80;;
63882;SDS011;50047;50.596;30.466;2023-03-23T07:14:13;15.30;;;9.20;;
63882;SDS011;50047;50.596;30.466;2023-03-23T07:16:44;15.70;;;9.40;;
63882;SDS011;50047;50.596;30.466;2023-03-23T07:19:11;19.00;;;8.70;;
63882;SDS011;50047;50.596;30.466;2023-03-23T07:21:39;14.90;;;8.40;;
63882;SDS011;50047;50.596;30.466;2023-03-23T07:24:09;18.40;;;9.40;;
63882;SDS011;50047;50.596;30.466;2023-03-23T07:26:50;17.50;;;8.90;;
63882;SDS011;50047;50.596;30.466;2023-03-23T07:29:21;15.60;;;9.00;;
63882;SDS011;50047;50.596;30.466;2023-03-23T07:31:59;13.90;;;9.30;;
63882;SDS011;50047;50.596;30.466;2023-03-23T07:34:26;14.40;;;9.80;;
63882;SDS011;50047;50.596;30.466;2023-03-23T07:37:03;16.70;;;10.00;;
63882;SDS011;50047;50.596;30.466;2023-03-23T07:39:32;17.90;;;9.40;;
63882;SDS011;50047;50.596;30.466;2023-03-23T07:42:01;18.80;;;9.90;;
63882;SDS011;50047;50.596;30.466;2023-03-23T07:44:42;16.20;;;9.40;;
63882;SDS011;50047;50.596;30.466;2023-03-23T07:47:11;16.60;;;9.40;;
63882;SDS011;50047;50.596;30.466;2023-03-23T07:49:38;16.60;;;9.80;;
63882;SDS011;50047;50.596;30.466;2023-03-23T07:52:32;15.80;;;8.70;;
63882;SDS011;50047;50.596;30.466;2023-03-23T07:55:01;14.10;;;9.10;;
63882;SDS011;50047;50.596;30.466;2023-03-23T07:57:39;13.80;;;8.90;;
63882;SDS011;50047;50.596;30.466;2023-03-23T08:00:10;15.30;;;8.70;;
63882;SDS011;50047;50.596;30.466;2023-03-23T08:02:43;17.40;;;8.50;;
63882;SDS011;50047;50.596;30.466;2023-03-23T08:05:29;16.20;;;9.40;;
63882;SDS011;50047;50.596;30.466;2023-03-23T08:08:19;13.80;;;8.20;;
63882;SDS011;50047;50.596;30.466;2023-03-23T08:11:06;14.40;;;8.90;;
63882;SDS011;50047;50.596;30.466;2023-03-23T08:13:59;13.00;;;8.20;;
63882;SDS011;50047;50.596;30.466;2023-03-23T08:16:48;12.30;;;8.10;;
63882;SDS011;50047;50.596;30.466;2023-03-23T08:19:37;13.40;;;8.50;;
63882;SDS011;50047;50.596;30.466;2023-03-23T08:22:20;14.10;;;8.60;;
63882;SDS011;50047;50.596;30.466;2023-03-23T08:25:11;14.90;;;8.10;;
63882;SDS011;50047;50.596;30.466;2023-03-23T08:28:00;12.40;;;7.90;;
63882;SDS011;50047;50.596;30.466;2023-03-23T08:30:55;12.80;;;7.90;;
63882;SDS011;50047;50.596;30.466;2023-03-23T08:33:41;12.10;;;8.00;;
63882;SDS011;50047;50.596;30.466;2023-03-23T08:36:20;14.00;;;7.50;;
63882;SDS011;50047;50.596;30.466;2023-03-23T08:39:13;15.70;;;7.10;;
63882;SDS011;50047;50.596;30.466;2023-03-23T08:42:00;13.30;;;8.30;;
63882;SDS011;50047;50.596;30.466;2023-03-23T08:45:04;12.60;;;7.60;;
63882;SDS011;50047;50.596;30.466;2023-03-23T08:48:09;11.10;;;7.70;;
63882;SDS011;50047;50.596;30.466;2023-03-23T08:50:57;11.50;;;7.40;;
63882;SDS011;50047;50.596;30.466;2023-03-23T08:53:45;12.00;;;7.40;;
63882;SDS011;50047;50.596;30.466;2023-03-23T08:56:15;12.20;;;7.70;;
63882;SDS011;50047;50.596;30.466;2023-03-23T08:58:55;12.30;;;7.10;;
63882;SDS011;50047;50.596;30.466;2023-03-23T09:04:20;10.50;;;7.30;;
63882;SDS011;50047;50.596;30.466;2023-03-23T09:07:06;12.00;;;6.80;;
63882;SDS011;50047;50.596;30.466;2023-03-23T09:09:35;13.30;;;8.00;;
63882;SDS011;50047;50.596;30.466;2023-03-23T09:12:03;12.40;;;7.80;;
63882;SDS011;50047;50.596;30.466;2023-03-23T09:14:30;11.10;;;7.40;;
63882;SDS011;50047;50.596;30.466;2023-03-23T09:16:58;13.70;;;7.50;;
63882;SDS011;50047;50.596;30.466;2023-03-23T09:19:25;14.90;;;9.80;;
63882;SDS011;50047;50.596;30.466;2023-03-23T09:21:52;16.90;;;8.60;;
63882;SDS011;50047;50.596;30.466;2023-03-23T09:24:20;11.70;;;7.80;;
63882;SDS011;50047;50.596;30.466;2023-03-23T09:26:48;10.30;;;7.40;;
63882;SDS011;50047;50.596;30.466;2023-03-23T09:29:16;11.60;;;7.80;;
63882;SDS011;50047;50.596;30.466;2023-03-23T09:31:43;16.10;;;8.10;;
63882;SDS011;50047;50.596;30.466;2023-03-23T09:34:13;10.70;;;7.80;;
63882;SDS011;50047;50.596;30.466;2023-03-23T09:36:45;13.70;;;8.00;;
63882;SDS011;50047;50.596;30.466;2023-03-23T09:39:13;15.00;;;8.10;;
63882;SDS011;50047;50.596;30.466;2023-03-23T09:42:04;20.90;;;8.50;;
63882;SDS011;50047;50.596;30.466;2023-03-23T09:44:51;13.00;;;8.00;;
63882;SDS011;50047;50.596;30.466;2023-03-23T09:47:47;13.10;;;8.00;;
63882;SDS011;50047;50.596;30.466;2023-03-23T09:50:17;15.60;;;8.20;;
63882;SDS011;50047;50.596;30.466;2023-03-23T09:55:55;12.70;;;7.70;;
63882;SDS011;50047;50.596;30.466;2023-03-23T09:58:45;15.30;;;8.30;;
63882;SDS011;50047;50.596;30.466;2023-03-23T10:01:35;13.40;;;7.90;;
63882;SDS011;50047;50.596;30.466;2023-03-23T10:06:53;12.30;;;8.00;;
63882;SDS011;50047;50.596;30.466;2023-03-23T10:09:27;17.10;;;10.40;;
63882;SDS011;50047;50.596;30.466;2023-03-23T10:11:58;14.50;;;9.10;;
63882;SDS011;50047;50.596;30.466;2023-03-23T10:14:50;14.80;;;10.00;;
63882;SDS011;50047;50.596;30.466;2023-03-23T10:17:46;17.20;;;10.10;;
63882;SDS011;50047;50.596;30.466;2023-03-23T10:26:36;13.20;;;8.80;;
63882;SDS011;50047;50.596;30.466;2023-03-23T10:28:41;13.60;;;8.80;;
63882;SDS011;50047;50.596;30.466;2023-03-23T10:31:12;20.50;;;9.20;;
63882;SDS011;50047;50.596;30.466;2023-03-23T10:33:47;13.50;;;9.40;;
63882;SDS011;50047;50.596;30.466;2023-03-23T10:36:24;18.10;;;9.40;;
63882;SDS011;50047;50.596;30.466;2023-03-23T10:41:23;16.70;;;9.40;;
63882;SDS011;50047;50.596;30.466;2023-03-23T10:43:51;13.60;;;9.10;;
63882;SDS011;50047;50.596;30.466;2023-03-23T10:49:26;13.70;;;8.20;;
63882;SDS011;50047;50.596;30.466;2023-03-23T10:52:00;15.80;;;9.10;;
63882;SDS011;50047;50.596;30.466;2023-03-23T10:54:35;13.50;;;9.00;;
63882;SDS011;50047;50.596;30.466;2023-03-23T10:57:27;17.50;;;9.00;;
63882;SDS011;50047;50.596;30.466;2023-03-23T11:00:23;15.20;;;8.30;;
63882;SDS011;50047;50.596;30.466;2023-03-23T11:05:27;15.10;;;9.70;;
63882;SDS011;50047;50.596;30.466;2023-03-23T11:08:25;14.20;;;8.00;;
63882;SDS011;50047;50.596;30.466;2023-03-23T11:10:57;19.10;;;12.50;;
63882;SDS011;50047;50.596;30.466;2023-03-23T11:13:45;16.20;;;10.70;;
63882;SDS011;50047;50.596;30.466;2023-03-23T11:16:24;14.90;;;10.00;;
63882;SDS011;50047;50.596;30.466;2023-03-23T11:18:51;14.70;;;11.10;;
63882;SDS011;50047;50.596;30.466;2023-03-23T11:21:20;16.50;;;8.20;;
63882;SDS011;50047;50.596;30.466;2023-03-23T11:23:50;11.80;;;8.60;;
63882;SDS011;50047;50.596;30.466;2023-03-23T11:26:30;11.40;;;7.60;;
63882;SDS011;50047;50.596;30.466;2023-03-23T11:31:45;14.10;;;7.60;;
63882;SDS011;50047;50.596;30.466;2023-03-23T11:34:25;11.00;;;8.20;;
63882;SDS011;50047;50.596;30.466;2023-03-23T11:39:30;19.20;;;11.20;;
63882;SDS011;50047;50.596;30.466;2023-03-23T11:44:47;17.20;;;12.90;;
63882;SDS011;50047;50.596;30.466;2023-03-23T11:49:57;13.90;;;8.10;;
63882;SDS011;50047;50.596;30.466;2023-03-23T11:52:46;13.80;;;8.20;;
63882;SDS011;50047;50.596;30.466;2023-03-23T11:55:26;12.60;;;7.60;;
63882;SDS011;50047;50.596;30.466;2023-03-23T11:58:26;9.80;;;7.40;;
63882;SDS011;50047;50.596;30.466;2023-03-23T12:01:11;12.30;;;7.40;;
63882;SDS011;50047;50.596;30.466;2023-03-23T12:11:58;14.50;;;7.70;;
63882;SDS011;50047;50.596;30.466;2023-03-23T12:20:42;11.90;;;7.90;;
63882;SDS011;50047;50.596;30.466;2023-03-23T12:23:28;11.60;;;7.50;;
63882;SDS011;50047;50.596;30.466;2023-03-23T12:34:41;14.90;;;7.50;;
63882;SDS011;50047;50.596;30.466;2023-03-23T12:37:37;12.40;;;7.50;;
63882;SDS011;50047;50.596;30.466;2023-03-23T12:48:20;12.90;;;7.20;;
63882;SDS011;50047;50.596;30.466;2023-03-23T12:53:33;9.80;;;6.70;;
63882;SDS011;50047;50.596;30.466;2023-03-23T12:59:25;9.60;;;6.90;;
63882;SDS011;50047;50.596;30.466;2023-03-23T13:02:28;10.10;;;6.30;;
63882;SDS011;50047;50.596;30.466;2023-03-23T13:05:03;18.30;;;11.30;;
63882;SDS011;50047;50.596;30.466;2023-03-23T13:07:42;15.10;;;10.90;;
63882;SDS011;50047;50.596;30.466;2023-03-23T13:10:19;13.00;;;8.50;;
63882;SDS011;50047;50.596;30.466;2023-03-23T13:12:51;13.50;;;7.60;;
63882;SDS011;50047;50.596;30.466;2023-03-23T13:21:14;20.70;;;8.90;;
63882;SDS011;50047;50.596;30.466;2023-03-23T13:23:46;20.30;;;7.30;;
63882;SDS011;50047;50.596;30.466;2023-03-23T13:26:18;9.50;;;6.20;;
63882;SDS011;50047;50.596;30.466;2023-03-23T13:29:05;9.40;;;6.30;;
63882;SDS011;50047;50.596;30.466;2023-03-23T13:31:36;11.10;;;6.30;;
63882;SDS011;50047;50.596;30.466;2023-03-23T13:39:52;7.90;;;5.50;;
63882;SDS011;50047;50.596;30.466;2023-03-23T13:42:24;13.00;;;6.50;;
63882;SDS011;50047;50.596;30.466;2023-03-23T13:45:05;10.30;;;6.90;;
63882;SDS011;50047;50.596;30.466;2023-03-23T13:48:02;14.70;;;9.50;;
63882;SDS011;50047;50.596;30.466;2023-03-23T13:50:35;14.30;;;8.30;;
63882;SDS011;50047;50.596;30.466;2023-03-23T13:53:26;10.40;;;7.00;;
63882;SDS011;50047;50.596;30.466;2023-03-23T14:01:42;12.20;;;6.90;;
63882;SDS011;50047;50.596;30.466;2023-03-23T14:04:14;10.60;;;6.70;;
63882;SDS011;50047;50.596;30.466;2023-03-23T14:06:49;9.60;;;6.90;;
63882;SDS011;50047;50.596;30.466;2023-03-23T14:09:31;15.90;;;8.50;;
63882;SDS011;50047;50.596;30.466;2023-03-23T14:12:02;16.00;;;10.00;;
63882;SDS011;50047;50.596;30.466;2023-03-23T14:14:43;13.40;;;8.70;;
63882;SDS011;50047;50.596;30.466;2023-03-23T14:17:14;12.50;;;8.80;;
63882;SDS011;50047;50.596;30.466;2023-03-23T14:19:47;10.10;;;7.30;;
63882;SDS011;50047;50.596;30.466;2023-03-23T14:22:54;9.70;;;6.60;;
63882;SDS011;50047;50.596;30.466;2023-03-23T14:27:43;13.10;;;8.10;;
63882;SDS011;50047;50.596;30.466;2023-03-23T14:30:14;12.00;;;7.30;;
63882;SDS011;50047;50.596;30.466;2023-03-23T14:32:47;9.00;;;6.40;;
63882;SDS011;50047;50.596;30.466;2023-03-23T14:37:52;10.50;;;6.70;;
63882;SDS011;50047;50.596;30.466;2023-03-23T14:40:21;10.70;;;6.70;;
63882;SDS011;50047;50.596;30.466;2023-03-23T14:42:49;11.10;;;6.60;;
63882;SDS011;50047;50.596;30.466;2023-03-23T14:45:23;9.50;;;6.80;;
63882;SDS011;50047;50.596;30.466;2023-03-23T14:47:58;9.60;;;6.50;;
63882;SDS011;50047;50.596;30.466;2023-03-23T14:53:07;10.50;;;6.40;;
63882;SDS011;50047;50.596;30.466;2023-03-23T14:55:46;12.90;;;6.30;;
63882;SDS011;50047;50.596;30.466;2023-03-23T14:58:15;11.10;;;6.10;;
63882;SDS011;50047;50.596;30.466;2023-03-23T15:00:47;8.80;;;5.60;;
63882;SDS011;50047;50.596;30.466;2023-03-23T15:03:20;9.60;;;6.10;;
63882;SDS011;50047;50.596;30.466;2023-03-23T15:05:50;16.70;;;6.30;;
63882;SDS011;50047;50.596;30.466;2023-03-23T15:08:25;10.20;;;6.10;;
63882;SDS011;50047;50.596;30.466;2023-03-23T15:11:07;16.30;;;6.10;;
63882;SDS011;50047;50.596;30.466;2023-03-23T15:13:42;10.40;;;5.50;;
63882;SDS011;50047;50.596;30.466;2023-03-23T15:16:22;9.00;;;5.60;;
63882;SDS011;50047;50.596;30.466;2023-03-23T15:19:10;11.30;;;5.70;;
63882;SDS011;50047;50.596;30.466;2023-03-23T15:21:54;10.20;;;5.70;;
63882;SDS011;50047;50.596;30.466;2023-03-23T15:24:32;9.80;;;5.80;;
63882;SDS011;50047;50.596;30.466;2023-03-23T15:27:11;12.00;;;6.30;;
63882;SDS011;50047;50.596;30.466;2023-03-23T15:29:47;13.80;;;6.20;;
63882;SDS011;50047;50.596;30.466;2023-03-23T15:32:29;9.90;;;6.50;;
63882;SDS011;50047;50.596;30.466;2023-03-23T15:34:58;17.80;;;7.10;;
63882;SDS011;50047;50.596;30.466;2023-03-23T15:37:38;13.50;;;7.50;;
63882;SDS011;50047;50.596;30.466;2023-03-23T15:40:17;15.30;;;8.70;;
63882;SDS011;50047;50.596;30.466;2023-03-23T15:42:47;22.90;;;11.70;;
63882;SDS011;50047;50.596;30.466;2023-03-23T15:45:26;22.10;;;9.90;;
63882;SDS011;50047;50.596;30.466;2023-03-23T15:47:57;18.50;;;10.00;;
63882;SDS011;50047;50.596;30.466;2023-03-23T15:50:33;15.60;;;8.50;;
63882;SDS011;50047;50.596;30.466;2023-03-23T15:53:16;24.80;;;9.50;;
63882;SDS011;50047;50.596;30.466;2023-03-23T15:55:45;25.30;;;9.30;;
63882;SDS011;50047;50.596;30.466;2023-03-23T15:58:13;19.20;;;9.90;;
63882;SDS011;50047;50.596;30.466;2023-03-23T16:00:42;16.70;;;8.70;;
63882;SDS011;50047;50.596;30.466;2023-03-23T16:03:23;15.60;;;7.40;;
63882;SDS011;50047;50.596;30.466;2023-03-23T16:05:57;12.60;;;6.80;;
63882;SDS011;50047;50.596;30.466;2023-03-23T16:08:30;11.60;;;7.10;;
63882;SDS011;50047;50.596;30.466;2023-03-23T16:10:59;12.50;;;6.50;;
63882;SDS011;50047;50.596;30.466;2023-03-23T16:13:29;11.80;;;6.90;;
63882;SDS011;50047;50.596;30.466;2023-03-23T16:15:58;11.00;;;6.40;;
63882;SDS011;50047;50.596;30.466;2023-03-23T16:18:29;8.70;;;6.00;;
63882;SDS011;50047;50.596;30.466;2023-03-23T16:20:58;16.60;;;6.40;;
63882;SDS011;50047;50.596;30.466;2023-03-23T16:23:28;11.00;;;7.10;;
63882;SDS011;50047;50.596;30.466;2023-03-23T16:25:56;14.60;;;6.70;;
63882;SDS011;50047;50.596;30.466;2023-03-23T16:28:24;11.80;;;6.30;;
63882;SDS011;50047;50.596;30.466;2023-03-23T16:30:54;9.20;;;5.70;;
63882;SDS011;50047;50.596;30.466;2023-03-23T16:33:24;13.80;;;6.10;;
63882;SDS011;50047;50.596;30.466;2023-03-23T16:35:52;13.30;;;6.10;;
63882;SDS011;50047;50.596;30.466;2023-03-23T16:38:21;10.00;;;6.10;;
63882;SDS011;50047;50.596;30.466;2023-03-23T16:40:50;13.50;;;6.10;;
63882;SDS011;50047;50.596;30.466;2023-03-23T16:43:19;10.40;;;6.40;;
63882;SDS011;50047;50.596;30.466;2023-03-23T16:45:49;13.70;;;6.40;;
63882;SDS011;50047;50.596;30.466;2023-03-23T16:48:23;11.50;;;6.40;;
63882;SDS011;50047;50.596;30.466;2023-03-23T16:50:59;12.10;;;6.70;;
63882;SDS011;50047;50.596;30.466;2023-03-23T16:53:29;12.70;;;6.70;;
63882;SDS011;50047;50.596;30.466;2023-03-23T16:55:57;13.10;;;7.10;;
63882;SDS011;50047;50.596;30.466;2023-03-23T16:58:26;10.60;;;7.10;;
63882;SDS011;50047;50.596;30.466;2023-03-23T17:00:55;11.80;;;7.10;;
63882;SDS011;50047;50.596;30.466;2023-03-23T17:03:23;13.10;;;7.10;;
63882;SDS011;50047;50.596;30.466;2023-03-23T17:05:52;13.30;;;6.80;;